Heinz Schepers — V2OM7 — position and weather

sailwx.info

Track history (hours):
 
Tides and Currents Weather Stations Pressure Air Temp Water Temp Dewpoint Dewpoint Depression Visibility Wind Speed Wind Dir Waves Ship Positions

Heinz Schepers

Last reported at 2017-Dec-09 17:41 UTC. Time now 2017-Dec-11 02:27 UTC.
Position N 51°52' W 005°56'.

Length 101 m; draft 4.9 m.

Type: Cargo ship. MMSI: 304596000.

Date/timePositionNaut miles runAvg speedWind from/ knotsBaromVisibWave heightAir tempDewpointWater temp
2017-Dec-09 17:41N 51°52' W 005°56'1115.7
2017-Dec-09 16:58N 52°03' W 005°51'815.5
2017-Dec-09 16:29N 52°10' W 005°50'715.2
2017-Dec-09 16:00N 52°17' W 005°49'714.7
2017-Dec-09 15:30N 52°25' W 005°49'714.2
2017-Dec-09 14:59N 52°32' W 005°48'3212.6
2017-Dec-09 12:25N 53°04' W 005°55'511.8
2017-Dec-09 11:59N 53°09' W 005°57'612.7
2017-Dec-09 11:30N 53°15' W 006°01'612.0
2017-Dec-09 10:59N 53°20' W 006°06'4 7.4
2017-Dec-09 10:29N 53°21' W 006°12'0 0.0
2017-Dec-09 09:56N 53°21' W 006°12'0 0.0
2017-Dec-09 06:36N 53°21' W 006°12'0 0.2
2017-Dec-09 06:30N 53°21' W 006°12'4 6.9
2017-Dec-09 05:58N 53°20' W 006°06'4 8.3
2017-Dec-09 05:28N 53°22' W 005°60'4 8.3
2017-Dec-09 04:59N 53°24' W 005°54'5 8.2
2017-Dec-09 04:21N 53°27' W 005°47'53 8.7
2017-Dec-08 22:19N 53°60' W 004°37'3 8.6
2017-Dec-08 22:01N 54°01' W 004°33'8 5.9
2017-Dec-08 20:40N 54°07' W 004°24'1 5.9
2017-Dec-08 20:31N 54°06' W 004°22'612.6
2017-Dec-08 20:00N 54°03' W 004°14'1712.5
2017-Dec-08 18:38N 53°51' W 003°53'212.4
2017-Dec-08 18:29N 53°49' W 003°51'611.9
2017-Dec-08 18:00N 53°45' W 003°44'611.9
2017-Dec-08 17:30N 53°41' W 003°37'611.2
2017-Dec-08 17:00N 53°37' W 003°30'511.0
2017-Dec-08 16:30N 53°35' W 003°22'611.3
2017-Dec-08 16:00N 53°31' W 003°14'611.3
2017-Dec-08 15:30N 53°29' W 003°05'3 6.9
2017-Dec-08 15:00N 53°27' W 003°01'0 0.6
2017-Dec-08 14:30N 53°27' W 003°01'0 0.6
2017-Dec-08 13:56N 53°28' W 003°01'0 0.0
2017-Dec-08 13:29N 53°28' W 003°01'0 0.0
2017-Dec-08 12:59N 53°28' W 003°01'0 0.0
2017-Dec-08 12:29N 53°28' W 003°01'0 0.0
2017-Dec-08 11:58N 53°28' W 003°01'0 0.0
2017-Dec-08 11:25N 53°28' W 003°01'0 0.0
2017-Dec-08 10:55N 53°28' W 003°01'0 0.0
2017-Dec-08 10:28N 53°28' W 003°01'0 0.0
2017-Dec-08 09:58N 53°28' W 003°01'0 0.0
2017-Dec-08 09:28N 53°28' W 003°01'0 0.0
2017-Dec-08 08:58N 53°28' W 003°01'0 0.0
2017-Dec-08 08:28N 53°28' W 003°01'0 0.0
2017-Dec-08 07:55N 53°28' W 003°01'0 0.0
2017-Dec-08 07:28N 53°28' W 003°01'0 0.0
2017-Dec-08 06:58N 53°28' W 003°01'0 0.0
2017-Dec-08 06:28N 53°28' W 003°01'0 0.0
2017-Dec-08 05:55N 53°28' W 003°01'0 0.0
2017-Dec-08 05:28N 53°28' W 003°01'0 0.0
2017-Dec-08 04:58N 53°28' W 003°01'0 0.0
2017-Dec-08 04:28N 53°28' W 003°01'0 0.0
2017-Dec-08 03:55N 53°28' W 003°01'0 0.0
2017-Dec-08 03:28N 53°28' W 003°01'0 0.0
2017-Dec-08 02:58N 53°28' W 003°01'0 0.0
2017-Dec-08 02:28N 53°28' W 003°01'0 0.0
2017-Dec-08 01:55N 53°28' W 003°01'0 0.0
2017-Dec-08 01:28N 53°28' W 003°01'0 0.0
2017-Dec-08 00:58N 53°28' W 003°01'0 0.0
2017-Dec-08 00:28N 53°28' W 003°01'0 0.0
2017-Dec-07 23:58N 53°28' W 003°01'0 0.0
2017-Dec-07 23:28N 53°28' W 003°01'0 0.0
2017-Dec-07 22:58N 53°28' W 003°01'0 0.0
2017-Dec-07 22:28N 53°28' W 003°01'0 0.0
2017-Dec-07 21:58N 53°28' W 003°01'0 0.0
2017-Dec-07 21:28N 53°28' W 003°01'0 0.0
2017-Dec-07 20:58N 53°28' W 003°01'0 0.0
2017-Dec-07 20:28N 53°28' W 003°01'0 0.0
2017-Dec-07 19:58N 53°28' W 003°01'0 0.0
2017-Dec-07 19:28N 53°28' W 003°01'0 0.0
2017-Dec-07 18:58N 53°28' W 003°01'0 0.0
2017-Dec-07 18:28N 53°28' W 003°01'0 0.0
2017-Dec-07 17:58N 53°28' W 003°01'0 0.0
2017-Dec-07 17:28N 53°28' W 003°01'0 0.0
2017-Dec-07 16:58N 53°28' W 003°01'0 0.0
2017-Dec-07 16:28N 53°28' W 003°01'0 0.0
2017-Dec-07 15:55N 53°28' W 003°01'0 0.0
2017-Dec-07 15:28N 53°28' W 003°01'0 0.0
2017-Dec-07 14:58N 53°28' W 003°01'0 0.0
2017-Dec-07 14:28N 53°28' W 003°01'0 0.0
2017-Dec-07 13:58N 53°28' W 003°01'0 0.0
2017-Dec-07 13:28N 53°28' W 003°01'0 0.0
2017-Dec-07 12:58N 53°28' W 003°01'0 0.0
2017-Dec-07 12:28N 53°28' W 003°01'0 0.0
2017-Dec-07 11:58N 53°28' W 003°01'0 0.0
2017-Dec-07 11:25N 53°28' W 003°01'0 0.0
2017-Dec-07 10:58N 53°28' W 003°01'0 0.0
2017-Dec-07 10:28N 53°28' W 003°01'0 0.0
2017-Dec-07 09:58N 53°28' W 003°01'0 0.0
2017-Dec-07 09:28N 53°28' W 003°01'0 0.0
2017-Dec-07 08:52N 53°28' W 003°01'0 0.0
2017-Dec-07 08:28N 53°28' W 003°01'0 0.0
2017-Dec-07 07:58N 53°28' W 003°01'0 0.0
2017-Dec-07 07:25N 53°28' W 003°01'0 0.0
2017-Dec-07 06:58N 53°28' W 003°01'0 0.0
2017-Dec-07 06:28N 53°28' W 003°01'0 0.0
2017-Dec-07 05:58N 53°28' W 003°01'0 0.0
2017-Dec-07 05:28N 53°28' W 003°01'0 0.0
2017-Dec-07 04:58N 53°28' W 003°01'0 0.0
2017-Dec-07 04:28N 53°28' W 003°01'0 0.0
2017-Dec-07 03:58N 53°28' W 003°01'0 0.0
2017-Dec-07 03:25N 53°28' W 003°01'0 0.0
2017-Dec-07 02:58N 53°28' W 003°01'0 0.0
2017-Dec-07 02:28N 53°28' W 003°01'0 0.0
2017-Dec-07 01:58N 53°28' W 003°01'0 0.7
2017-Dec-07 01:30N 53°27' W 003°01'0 0.6
2017-Dec-07 01:00N 53°27' W 003°01'0 0.3
2017-Dec-07 00:30N 53°27' W 003°01'0 0.4
2017-Dec-07 00:00N 53°27' W 003°01'2 4.5
2017-Dec-06 23:30N 53°28' W 003°04'3 6.8
2017-Dec-06 23:00N 53°31' W 003°07'4 7.4
2017-Dec-06 22:30N 53°31' W 003°13'4 8.5
2017-Dec-06 22:00N 53°31' W 003°20'1 2.1
2017-Dec-06 21:30N 53°32' W 003°21'2 3.7
2017-Dec-06 21:00N 53°31' W 003°23'  
2017-Dec-01 18:21N 41°17' W 008°53'412.1
2017-Dec-01 18:00N 41°13' W 008°52'612.4
2017-Dec-01 17:30N 41°11' W 008°45'3 5.2
2017-Dec-01 16:58N 41°12' W 008°41'0 0.0
2017-Dec-01 16:28N 41°12' W 008°41'0 0.0
2017-Dec-01 15:58N 41°12' W 008°41'0 0.0
2017-Dec-01 15:28N 41°12' W 008°41'0 0.0
2017-Dec-01 14:58N 41°12' W 008°41'0 0.0
2017-Dec-01 14:28N 41°12' W 008°41'0 0.0
2017-Dec-01 13:58N 41°12' W 008°41'0 0.0
2017-Dec-01 13:28N 41°12' W 008°41'0 0.0
2017-Dec-01 12:58N 41°12' W 008°41'0 0.0
2017-Dec-01 12:28N 41°12' W 008°41'0 0.0
2017-Dec-01 11:58N 41°12' W 008°41'0 0.0
2017-Dec-01 11:28N 41°12' W 008°41'0 0.7
2017-Dec-01 11:00N 41°11' W 008°42'3 6.0
2017-Dec-01 10:30N 41°09' W 008°44'1 1.1
2017-Dec-01 10:00N 41°09' W 008°45'2 3.5
2017-Dec-01 09:31N 41°08' W 008°47'2 4.5
2017-Dec-01 09:01N 41°06' W 008°48'3 6.0
2017-Dec-01 08:30N 41°03' W 008°50'5 9.2
2017-Dec-01 07:59N 40°60' W 008°54'9510.7
2017-Nov-30 23:09N 39°33' W 009°44'211.0
2017-Nov-30 23:00N 39°31' W 009°45'611.2
2017-Nov-30 22:29N 39°26' W 009°46'511.3
2017-Nov-30 22:00N 39°20' W 009°47'611.4
2017-Nov-30 21:30N 39°15' W 009°47'611.3
2017-Nov-30 21:00N 39°09' W 009°48'611.3
2017-Nov-30 20:30N 39°03' W 009°49'611.3
2017-Nov-30 20:00N 38°58' W 009°49'511.0
2017-Nov-30 19:30N 38°52' W 009°50'611.0
2017-Nov-30 19:00N 38°47' W 009°50'511.0
2017-Nov-30 18:30N 38°41' W 009°50'510.8
2017-Nov-30 18:00N 38°36' W 009°48'510.7
2017-Nov-30 17:30N 38°31' W 009°47'510.7
2017-Nov-30 17:00N 38°26' W 009°45'510.5
2017-Nov-30 16:30N 38°21' W 009°43'510.4
2017-Nov-30 16:00N 38°15' W 009°41'811.5
2017-Nov-30 15:18N 38°08' W 009°40'511.5
2017-Nov-30 14:50N 38°03' W 009°38'411.0
2017-Nov-30 14:31N 37°59' W 009°37'611.2
2017-Nov-30 14:00N 37°53' W 009°36'511.1
2017-Nov-30 13:31N 37°48' W 009°34'611.1
2017-Nov-30 13:00N 37°43' W 009°31'5 9.7
2017-Nov-30 12:30N 37°38' W 009°31'6010.1
2017-Nov-30 06:32N 36°43' W 008°59'111.4
2017-Nov-30 06:29N 36°43' W 008°58'511.3
2017-Nov-30 06:00N 36°43' W 008°51'611.5
2017-Nov-30 05:30N 36°44' W 008°44'611.5
2017-Nov-30 04:59N 36°44' W 008°37'511.6
2017-Nov-30 04:30N 36°44' W 008°30'612.0
2017-Nov-30 04:00N 36°44' W 008°22'611.2
2017-Nov-30 03:28N 36°44' W 008°15'511.4
2017-Nov-30 03:00N 36°45' W 008°08'  
Track history (hours):
 
Tides and Currents Weather Stations Pressure Air Temp Water Temp Dewpoint Dewpoint Depression Visibility Wind Speed Wind Dir Waves Ship Positions

Heinz Schepers

Last reported at 2017-Dec-09 17:41 UTC. Time now 2017-Dec-11 02:27 UTC.
Position N 51°52' W 005°56'.

Length 101 m; draft 4.9 m.

Type: Cargo ship. MMSI: 304596000.

Date/timePositionNaut miles runAvg speedWind from/ knotsBaromVisibWave heightAir tempDewpointWater temp
2017-Dec-09 17:41N 51°52' W 005°56'1115.7
2017-Dec-09 16:58N 52°03' W 005°51'815.5
2017-Dec-09 16:29N 52°10' W 005°50'715.2
2017-Dec-09 16:00N 52°17' W 005°49'714.7
2017-Dec-09 15:30N 52°25' W 005°49'714.2
2017-Dec-09 14:59N 52°32' W 005°48'3212.6
2017-Dec-09 12:25N 53°04' W 005°55'511.8
2017-Dec-09 11:59N 53°09' W 005°57'612.7
2017-Dec-09 11:30N 53°15' W 006°01'612.0
2017-Dec-09 10:59N 53°20' W 006°06'4 7.4
2017-Dec-09 10:29N 53°21' W 006°12'0 0.0
2017-Dec-09 09:56N 53°21' W 006°12'0 0.0
2017-Dec-09 06:36N 53°21' W 006°12'0 0.2
2017-Dec-09 06:30N 53°21' W 006°12'4 6.9
2017-Dec-09 05:58N 53°20' W 006°06'4 8.3
2017-Dec-09 05:28N 53°22' W 005°60'4 8.3
2017-Dec-09 04:59N 53°24' W 005°54'5 8.2
2017-Dec-09 04:21N 53°27' W 005°47'53 8.7
2017-Dec-08 22:19N 53°60' W 004°37'3 8.6
2017-Dec-08 22:01N 54°01' W 004°33'8 5.9
2017-Dec-08 20:40N 54°07' W 004°24'1 5.9
2017-Dec-08 20:31N 54°06' W 004°22'612.6
2017-Dec-08 20:00N 54°03' W 004°14'1712.5
2017-Dec-08 18:38N 53°51' W 003°53'212.4
2017-Dec-08 18:29N 53°49' W 003°51'611.9
2017-Dec-08 18:00N 53°45' W 003°44'611.9
2017-Dec-08 17:30N 53°41' W 003°37'611.2
2017-Dec-08 17:00N 53°37' W 003°30'511.0
2017-Dec-08 16:30N 53°35' W 003°22'611.3
2017-Dec-08 16:00N 53°31' W 003°14'611.3
2017-Dec-08 15:30N 53°29' W 003°05'3 6.9
2017-Dec-08 15:00N 53°27' W 003°01'0 0.6
2017-Dec-08 14:30N 53°27' W 003°01'0 0.6
2017-Dec-08 13:56N 53°28' W 003°01'0 0.0
2017-Dec-08 13:29N 53°28' W 003°01'0 0.0
2017-Dec-08 12:59N 53°28' W 003°01'0 0.0
2017-Dec-08 12:29N 53°28' W 003°01'0 0.0
2017-Dec-08 11:58N 53°28' W 003°01'0 0.0
2017-Dec-08 11:25N 53°28' W 003°01'0 0.0
2017-Dec-08 10:55N 53°28' W 003°01'0 0.0
2017-Dec-08 10:28N 53°28' W 003°01'0 0.0
2017-Dec-08 09:58N 53°28' W 003°01'0 0.0
2017-Dec-08 09:28N 53°28' W 003°01'0 0.0
2017-Dec-08 08:58N 53°28' W 003°01'0 0.0
2017-Dec-08 08:28N 53°28' W 003°01'0 0.0
2017-Dec-08 07:55N 53°28' W 003°01'0 0.0
2017-Dec-08 07:28N 53°28' W 003°01'0 0.0
2017-Dec-08 06:58N 53°28' W 003°01'0 0.0
2017-Dec-08 06:28N 53°28' W 003°01'0 0.0
2017-Dec-08 05:55N 53°28' W 003°01'0 0.0
2017-Dec-08 05:28N 53°28' W 003°01'0 0.0
2017-Dec-08 04:58N 53°28' W 003°01'0 0.0
2017-Dec-08 04:28N 53°28' W 003°01'0 0.0
2017-Dec-08 03:55N 53°28' W 003°01'0 0.0
2017-Dec-08 03:28N 53°28' W 003°01'0 0.0
2017-Dec-08 02:58N 53°28' W 003°01'0 0.0
2017-Dec-08 02:28N 53°28' W 003°01'0 0.0
2017-Dec-08 01:55N 53°28' W 003°01'0 0.0
2017-Dec-08 01:28N 53°28' W 003°01'0 0.0
2017-Dec-08 00:58N 53°28' W 003°01'0 0.0
2017-Dec-08 00:28N 53°28' W 003°01'0 0.0
2017-Dec-07 23:58N 53°28' W 003°01'0 0.0
2017-Dec-07 23:28N 53°28' W 003°01'0 0.0
2017-Dec-07 22:58N 53°28' W 003°01'0 0.0
2017-Dec-07 22:28N 53°28' W 003°01'0 0.0
2017-Dec-07 21:58N 53°28' W 003°01'0 0.0
2017-Dec-07 21:28N 53°28' W 003°01'0 0.0
2017-Dec-07 20:58N 53°28' W 003°01'0 0.0
2017-Dec-07 20:28N 53°28' W 003°01'0 0.0
2017-Dec-07 19:58N 53°28' W 003°01'0 0.0
2017-Dec-07 19:28N 53°28' W 003°01'0 0.0
2017-Dec-07 18:58N 53°28' W 003°01'0 0.0
2017-Dec-07 18:28N 53°28' W 003°01'0 0.0
2017-Dec-07 17:58N 53°28' W 003°01'0 0.0
2017-Dec-07 17:28N 53°28' W 003°01'0 0.0
2017-Dec-07 16:58N 53°28' W 003°01'0 0.0
2017-Dec-07 16:28N 53°28' W 003°01'0 0.0
2017-Dec-07 15:55N 53°28' W 003°01'0 0.0
2017-Dec-07 15:28N 53°28' W 003°01'0 0.0
2017-Dec-07 14:58N 53°28' W 003°01'0 0.0
2017-Dec-07 14:28N 53°28' W 003°01'0 0.0
2017-Dec-07 13:58N 53°28' W 003°01'0 0.0
2017-Dec-07 13:28N 53°28' W 003°01'0 0.0
2017-Dec-07 12:58N 53°28' W 003°01'0 0.0
2017-Dec-07 12:28N 53°28' W 003°01'0 0.0
2017-Dec-07 11:58N 53°28' W 003°01'0 0.0
2017-Dec-07 11:25N 53°28' W 003°01'0 0.0
2017-Dec-07 10:58N 53°28' W 003°01'0 0.0
2017-Dec-07 10:28N 53°28' W 003°01'0 0.0
2017-Dec-07 09:58N 53°28' W 003°01'0 0.0
2017-Dec-07 09:28N 53°28' W 003°01'0 0.0
2017-Dec-07 08:52N 53°28' W 003°01'0 0.0
2017-Dec-07 08:28N 53°28' W 003°01'0 0.0
2017-Dec-07 07:58N 53°28' W 003°01'0 0.0
2017-Dec-07 07:25N 53°28' W 003°01'0 0.0
2017-Dec-07 06:58N 53°28' W 003°01'0 0.0
2017-Dec-07 06:28N 53°28' W 003°01'0 0.0
2017-Dec-07 05:58N 53°28' W 003°01'0 0.0
2017-Dec-07 05:28N 53°28' W 003°01'0 0.0
2017-Dec-07 04:58N 53°28' W 003°01'0 0.0
2017-Dec-07 04:28N 53°28' W 003°01'0 0.0
2017-Dec-07 03:58N 53°28' W 003°01'0 0.0
2017-Dec-07 03:25N 53°28' W 003°01'0 0.0
2017-Dec-07 02:58N 53°28' W 003°01'0 0.0
2017-Dec-07 02:28N 53°28' W 003°01'0 0.0
2017-Dec-07 01:58N 53°28' W 003°01'0 0.7
2017-Dec-07 01:30N 53°27' W 003°01'0 0.6
2017-Dec-07 01:00N 53°27' W 003°01'0 0.3
2017-Dec-07 00:30N 53°27' W 003°01'0 0.4
2017-Dec-07 00:00N 53°27' W 003°01'2 4.5
2017-Dec-06 23:30N 53°28' W 003°04'3 6.8
2017-Dec-06 23:00N 53°31' W 003°07'4 7.4
2017-Dec-06 22:30N 53°31' W 003°13'4 8.5
2017-Dec-06 22:00N 53°31' W 003°20'1 2.1
2017-Dec-06 21:30N 53°32' W 003°21'2 3.7
2017-Dec-06 21:00N 53°31' W 003°23'  
2017-Dec-01 18:21N 41°17' W 008°53'412.1
2017-Dec-01 18:00N 41°13' W 008°52'612.4
2017-Dec-01 17:30N 41°11' W 008°45'3 5.2
2017-Dec-01 16:58N 41°12' W 008°41'0 0.0
2017-Dec-01 16:28N 41°12' W 008°41'0 0.0
2017-Dec-01 15:58N 41°12' W 008°41'0 0.0
2017-Dec-01 15:28N 41°12' W 008°41'0 0.0
2017-Dec-01 14:58N 41°12' W 008°41'0 0.0
2017-Dec-01 14:28N 41°12' W 008°41'0 0.0
2017-Dec-01 13:58N 41°12' W 008°41'0 0.0
2017-Dec-01 13:28N 41°12' W 008°41'0 0.0
2017-Dec-01 12:58N 41°12' W 008°41'0 0.0
2017-Dec-01 12:28N 41°12' W 008°41'0 0.0
2017-Dec-01 11:58N 41°12' W 008°41'0 0.0
2017-Dec-01 11:28N 41°12' W 008°41'0 0.7
2017-Dec-01 11:00N 41°11' W 008°42'3 6.0
2017-Dec-01 10:30N 41°09' W 008°44'1 1.1
2017-Dec-01 10:00N 41°09' W 008°45'2 3.5
2017-Dec-01 09:31N 41°08' W 008°47'2 4.5
2017-Dec-01 09:01N 41°06' W 008°48'3 6.0
2017-Dec-01 08:30N 41°03' W 008°50'5 9.2
2017-Dec-01 07:59N 40°60' W 008°54'9510.7
2017-Nov-30 23:09N 39°33' W 009°44'211.0
2017-Nov-30 23:00N 39°31' W 009°45'611.2
2017-Nov-30 22:29N 39°26' W 009°46'511.3
2017-Nov-30 22:00N 39°20' W 009°47'611.4
2017-Nov-30 21:30N 39°15' W 009°47'611.3
2017-Nov-30 21:00N 39°09' W 009°48'611.3
2017-Nov-30 20:30N 39°03' W 009°49'611.3
2017-Nov-30 20:00N 38°58' W 009°49'511.0
2017-Nov-30 19:30N 38°52' W 009°50'611.0
2017-Nov-30 19:00N 38°47' W 009°50'511.0
2017-Nov-30 18:30N 38°41' W 009°50'510.8
2017-Nov-30 18:00N 38°36' W 009°48'510.7
2017-Nov-30 17:30N 38°31' W 009°47'510.7
2017-Nov-30 17:00N 38°26' W 009°45'510.5
2017-Nov-30 16:30N 38°21' W 009°43'510.4
2017-Nov-30 16:00N 38°15' W 009°41'811.5
2017-Nov-30 15:18N 38°08' W 009°40'511.5
2017-Nov-30 14:50N 38°03' W 009°38'411.0
2017-Nov-30 14:31N 37°59' W 009°37'611.2
2017-Nov-30 14:00N 37°53' W 009°36'511.1
2017-Nov-30 13:31N 37°48' W 009°34'611.1
2017-Nov-30 13:00N 37°43' W 009°31'5 9.7
2017-Nov-30 12:30N 37°38' W 009°31'6010.1
2017-Nov-30 06:32N 36°43' W 008°59'111.4
2017-Nov-30 06:29N 36°43' W 008°58'511.3
2017-Nov-30 06:00N 36°43' W 008°51'611.5
2017-Nov-30 05:30N 36°44' W 008°44'611.5
2017-Nov-30 04:59N 36°44' W 008°37'511.6
2017-Nov-30 04:30N 36°44' W 008°30'612.0
2017-Nov-30 04:00N 36°44' W 008°22'611.2
2017-Nov-30 03:28N 36°44' W 008°15'511.4
2017-Nov-30 03:00N 36°45' W 008°08'  

Dump ship's entire track history